createdAt,value
2023-04-30T00:00:18.247Z,13.87
2023-04-30T00:03:25.044Z,13.87
2023-04-30T00:06:31.671Z,13.87
2023-04-30T00:09:37.071Z,13.94
2023-04-30T00:12:42.156Z,13.97
2023-04-30T00:15:47.452Z,14.13
2023-04-30T00:18:53.032Z,14.06
2023-04-30T00:21:58.325Z,14.10
2023-04-30T00:25:03.961Z,14.10
2023-04-30T00:28:09.586Z,14.07
2023-04-30T00:31:15.019Z,14.31
2023-04-30T00:34:20.626Z,14.22
2023-04-30T00:37:26.226Z,14.24
2023-04-30T00:40:31.571Z,14.12
2023-04-30T00:43:36.805Z,14.27
2023-04-30T00:46:42.431Z,14.14
2023-04-30T00:49:48.501Z,14.09
2023-04-30T00:52:54.016Z,14.12
2023-04-30T00:55:59.472Z,14.07
2023-04-30T00:59:05.127Z,13.88
2023-04-30T01:02:10.727Z,13.90
2023-04-30T01:05:16.854Z,13.77
2023-04-30T01:08:22.244Z,13.77
2023-04-30T01:11:33.498Z,13.76
2023-04-30T01:15:03.560Z,13.73
2023-04-30T01:18:26.337Z,13.64
2023-04-30T01:21:33.840Z,13.56
2023-04-30T01:24:55.244Z,13.69
2023-04-30T01:28:05.597Z,13.75
2023-04-30T01:31:16.875Z,13.84
2023-04-30T01:34:22.111Z,13.89
2023-04-30T01:37:38.919Z,13.66
2023-04-30T01:41:09.779Z,13.49
2023-04-30T01:44:50.652Z,13.43
2023-04-30T01:48:16.336Z,13.48
2023-04-30T01:51:42.700Z,13.34
2023-04-30T01:55:00.413Z,13.39
2023-04-30T01:58:10.713Z,13.33
2023-04-30T02:01:33.573Z,12.99
2023-04-30T02:04:39.345Z,13.22
2023-04-30T02:07:48.724Z,13.33
2023-04-30T02:10:53.991Z,13.37
2023-04-30T02:13:59.324Z,13.01
2023-04-30T02:17:06.467Z,12.98
2023-04-30T02:20:12.206Z,13.13
2023-04-30T02:23:17.394Z,13.09
2023-04-30T02:26:23.036Z,13.12
2023-04-30T02:29:28.600Z,13.08
2023-04-30T02:32:34.645Z,12.98
2023-04-30T02:35:41.510Z,13.00
2023-04-30T02:38:47.507Z,12.95
2023-04-30T02:41:52.998Z,12.96
2023-04-30T02:44:58.192Z,13.12
2023-04-30T02:48:03.539Z,12.94
2023-04-30T02:51:09.000Z,12.91
2023-04-30T02:54:14.359Z,12.93
2023-04-30T02:57:19.983Z,13.01
2023-04-30T03:00:25.559Z,13.22
2023-04-30T03:03:31.153Z,13.02
2023-04-30T03:06:37.550Z,12.99
2023-04-30T03:09:44.098Z,13.05
2023-04-30T03:12:49.408Z,13.17
2023-04-30T03:16:00.635Z,13.00
2023-04-30T03:19:06.090Z,13.01
2023-04-30T03:22:11.997Z,13.05
2023-04-30T03:25:17.551Z,13.02
2023-04-30T03:28:22.855Z,12.99
2023-04-30T03:31:28.022Z,13.07
2023-04-30T03:34:33.865Z,13.13
2023-04-30T03:37:40.257Z,13.17
2023-04-30T03:40:45.836Z,13.24
2023-04-30T03:43:51.393Z,13.34
2023-04-30T03:46:56.642Z,13.35
2023-04-30T03:50:01.553Z,13.41
2023-04-30T03:53:06.539Z,13.43
2023-04-30T03:56:12.106Z,13.43
2023-04-30T03:59:18.106Z,13.43
2023-04-30T04:02:23.668Z,13.44
2023-04-30T04:05:30.050Z,13.45
2023-04-30T04:08:36.557Z,13.39
2023-04-30T04:11:41.930Z,13.31
2023-04-30T04:14:47.936Z,13.32
2023-04-30T04:17:53.392Z,13.19
2023-04-30T04:20:58.603Z,13.20
2023-04-30T04:24:08.715Z,13.12
2023-04-30T04:27:14.212Z,13.23
2023-04-30T04:30:20.010Z,13.18
2023-04-30T04:33:28.293Z,13.21
2023-04-30T04:36:34.461Z,13.13
2023-04-30T04:39:39.659Z,13.21
2023-04-30T04:42:45.939Z,13.16
2023-04-30T04:45:52.745Z,13.19
2023-04-30T04:48:58.965Z,13.19
2023-04-30T04:52:05.890Z,13.32
2023-04-30T04:55:12.321Z,13.30
2023-04-30T04:58:18.367Z,13.30
2023-04-30T05:01:23.704Z,13.30
2023-04-30T05:04:28.911Z,13.35
2023-04-30T05:07:35.387Z,13.48
2023-04-30T05:10:41.336Z,13.49
2023-04-30T05:13:47.787Z,13.45
2023-04-30T05:16:53.407Z,13.60
2023-04-30T05:19:58.692Z,13.78
2023-04-30T05:23:03.845Z,13.84
2023-04-30T05:26:09.124Z,13.92
2023-04-30T05:29:14.275Z,14.05
2023-04-30T05:32:19.365Z,14.09
2023-04-30T05:35:24.447Z,14.21
2023-04-30T05:38:30.070Z,14.28
2023-04-30T05:41:35.758Z,14.33
2023-04-30T05:44:42.015Z,14.43
2023-04-30T05:47:47.678Z,14.56
2023-04-30T05:50:53.249Z,14.65
2023-04-30T05:53:58.796Z,14.69
2023-04-30T05:57:04.434Z,14.60
2023-04-30T06:00:10.580Z,14.63
2023-04-30T06:03:20.329Z,14.61
2023-04-30T06:06:25.728Z,14.65
2023-04-30T06:09:30.873Z,14.61
2023-04-30T06:12:36.754Z,14.63
2023-04-30T06:15:42.425Z,14.67
2023-04-30T06:18:47.710Z,14.60
2023-04-30T06:21:53.166Z,14.41
2023-04-30T06:24:58.714Z,14.62
2023-04-30T06:28:04.293Z,14.70
2023-04-30T06:31:09.989Z,14.73
2023-04-30T06:34:15.325Z,14.70
2023-04-30T06:37:20.695Z,14.74
2023-04-30T06:40:25.988Z,14.77
2023-04-30T06:43:31.420Z,14.87
2023-04-30T06:46:36.598Z,14.96
2023-04-30T06:49:42.041Z,15.22
2023-04-30T06:52:47.728Z,15.39
2023-04-30T06:55:53.453Z,15.89
2023-04-30T06:58:58.577Z,15.91
2023-04-30T07:02:04.128Z,15.95
2023-04-30T07:05:11.459Z,16.23
2023-04-30T07:08:16.692Z,15.75
2023-04-30T07:11:22.205Z,16.00
2023-04-30T07:14:27.456Z,15.89
2023-04-30T07:17:32.409Z,15.89
2023-04-30T07:20:37.714Z,15.91
2023-04-30T07:23:44.465Z,15.94
2023-04-30T07:26:50.608Z,16.06
2023-04-30T07:29:56.570Z,16.24
2023-04-30T07:33:02.221Z,16.23
2023-04-30T07:36:08.196Z,16.30
2023-04-30T07:39:14.231Z,16.42
2023-04-30T07:42:19.836Z,16.37
2023-04-30T07:45:24.954Z,16.42
2023-04-30T07:48:30.606Z,16.56
2023-04-30T07:51:36.373Z,16.65
2023-04-30T07:54:41.875Z,16.77
2023-04-30T07:57:47.642Z,17.00
2023-04-30T08:00:52.984Z,16.90
2023-04-30T08:03:58.761Z,16.93
2023-04-30T08:07:04.786Z,16.97
2023-04-30T08:10:10.061Z,17.29
2023-04-30T08:13:15.281Z,17.25
2023-04-30T08:16:20.655Z,17.23
2023-04-30T08:19:26.007Z,17.20
2023-04-30T08:22:31.577Z,17.27
2023-04-30T08:25:37.242Z,17.34
2023-04-30T08:28:42.813Z,17.55
2023-04-30T08:31:48.273Z,17.42
2023-04-30T08:34:54.840Z,17.62
2023-04-30T08:37:59.982Z,17.61
2023-04-30T08:41:16.099Z,17.71
2023-04-30T08:44:24.065Z,17.83
2023-04-30T08:47:30.479Z,17.96
2023-04-30T08:50:35.962Z,17.93
2023-04-30T08:53:42.722Z,17.85
2023-04-30T08:56:48.427Z,17.90
2023-04-30T08:59:55.013Z,17.97
2023-04-30T09:03:01.650Z,17.79
2023-04-30T09:06:07.300Z,17.98
2023-04-30T09:09:14.372Z,17.93
2023-04-30T09:12:20.622Z,17.85
2023-04-30T09:15:26.656Z,17.91
2023-04-30T09:18:39.873Z,17.84
2023-04-30T09:21:45.325Z,18.05
2023-04-30T09:24:52.035Z,17.98
2023-04-30T09:28:14.694Z,18.13
2023-04-30T09:31:22.275Z,18.16
2023-04-30T09:34:36.271Z,18.30
2023-04-30T09:37:41.736Z,18.43
2023-04-30T09:40:47.372Z,18.57
2023-04-30T09:43:57.644Z,18.54
2023-04-30T09:47:03.740Z,18.70
2023-04-30T09:50:14.078Z,18.61
2023-04-30T09:53:20.501Z,18.78
2023-04-30T09:56:27.053Z,18.71
2023-04-30T09:59:38.317Z,18.90
2023-04-30T10:02:44.354Z,19.08
2023-04-30T10:05:53.565Z,18.81
2023-04-30T10:08:59.678Z,18.94
2023-04-30T10:12:13.377Z,18.87
2023-04-30T10:15:26.873Z,19.14
2023-04-30T10:18:35.614Z,19.07
2023-04-30T10:21:43.397Z,19.28
2023-04-30T10:24:50.687Z,19.43
2023-04-30T10:27:56.908Z,19.42
2023-04-30T10:31:03.256Z,19.78
2023-04-30T10:34:19.343Z,19.79
2023-04-30T10:37:55.396Z,19.46
2023-04-30T10:41:02.504Z,19.60
2023-04-30T10:44:08.305Z,19.97
2023-04-30T10:47:13.795Z,20.32
2023-04-30T10:50:24.320Z,20.27
2023-04-30T10:53:34.198Z,20.39
2023-04-30T10:56:40.081Z,19.86
2023-04-30T11:00:15.343Z,20.18
2023-04-30T11:03:22.804Z,19.77
2023-04-30T11:06:56.769Z,20.47
2023-04-30T11:10:02.938Z,20.82
2023-04-30T11:13:10.497Z,21.25
2023-04-30T11:16:20.709Z,21.29
2023-04-30T11:19:28.286Z,21.68
2023-04-30T11:22:36.590Z,21.13
2023-04-30T11:25:46.198Z,20.46
2023-04-30T11:28:55.273Z,20.87
2023-04-30T11:32:01.798Z,20.90
2023-04-30T11:35:08.313Z,20.63
2023-04-30T11:38:15.802Z,20.71
2023-04-30T11:41:21.822Z,20.43
2023-04-30T11:44:27.508Z,20.30
2023-04-30T11:47:46.397Z,20.67
2023-04-30T11:50:52.845Z,20.95
2023-04-30T11:53:58.563Z,20.53
2023-04-30T11:57:04.627Z,21.11
2023-04-30T12:00:13.296Z,20.99
2023-04-30T12:03:19.503Z,21.07
2023-04-30T12:06:27.943Z,20.59
2023-04-30T12:09:52.016Z,20.93
2023-04-30T12:12:57.898Z,21.03
2023-04-30T12:16:03.876Z,20.89
2023-04-30T12:19:09.891Z,20.69
2023-04-30T12:22:15.784Z,20.47
2023-04-30T12:25:23.353Z,20.53
2023-04-30T12:28:29.294Z,20.57
2023-04-30T12:31:35.206Z,20.60
2023-04-30T12:34:40.956Z,20.47
2023-04-30T12:37:53.197Z,20.47
2023-04-30T12:40:58.852Z,20.74
2023-04-30T12:44:17.829Z,21.10
2023-04-30T12:47:25.543Z,20.71
2023-04-30T12:50:31.736Z,20.63
2023-04-30T12:53:46.500Z,20.54
2023-04-30T12:57:00.161Z,20.71
2023-04-30T13:00:08.494Z,20.49
2023-04-30T13:03:15.113Z,20.40
2023-04-30T13:06:23.261Z,20.50
2023-04-30T13:09:29.600Z,20.48
2023-04-30T13:12:35.546Z,20.77
2023-04-30T13:15:43.441Z,20.52
2023-04-30T13:18:49.364Z,20.36
2023-04-30T13:21:54.861Z,20.70
2023-04-30T13:25:01.111Z,20.65
2023-04-30T13:28:07.492Z,20.56
2023-04-30T13:31:13.363Z,20.92
2023-04-30T13:34:18.800Z,20.67
2023-04-30T13:37:24.630Z,20.55
2023-04-30T13:40:30.579Z,20.69
2023-04-30T13:43:41.497Z,20.81
2023-04-30T13:46:49.133Z,20.85
2023-04-30T13:49:54.471Z,20.53
2023-04-30T13:53:00.397Z,20.47
2023-04-30T13:56:06.774Z,20.40
2023-04-30T13:59:12.370Z,20.36
2023-04-30T14:02:18.793Z,20.27
2023-04-30T14:05:24.502Z,20.79
2023-04-30T14:08:32.174Z,20.58
2023-04-30T14:11:37.982Z,20.32
2023-04-30T14:14:43.383Z,20.29
2023-04-30T14:17:48.912Z,20.46
2023-04-30T14:20:54.344Z,20.42
2023-04-30T14:24:00.035Z,20.41
2023-04-30T14:27:05.773Z,20.22
2023-04-30T14:30:11.680Z,20.32
2023-04-30T14:33:17.402Z,20.20
2023-04-30T14:36:23.006Z,20.22
2023-04-30T14:39:28.325Z,20.23
2023-04-30T14:42:34.089Z,20.24
2023-04-30T14:45:40.425Z,20.24
2023-04-30T14:48:46.448Z,20.46
2023-04-30T14:51:52.158Z,20.28
2023-04-30T14:54:57.838Z,20.44
2023-04-30T14:58:04.590Z,20.69
2023-04-30T15:01:10.172Z,20.47
2023-04-30T15:04:15.509Z,20.77
2023-04-30T15:07:21.358Z,20.82
2023-04-30T15:10:27.118Z,20.74
2023-04-30T15:13:33.320Z,20.65
2023-04-30T15:16:39.518Z,20.56
2023-04-30T15:19:44.877Z,20.72
2023-04-30T15:22:51.088Z,20.85
2023-04-30T15:25:57.269Z,20.81
2023-04-30T15:29:02.694Z,20.55
2023-04-30T15:32:08.172Z,20.46
2023-04-30T15:35:13.941Z,20.43
2023-04-30T15:38:20.706Z,20.34
2023-04-30T15:41:26.324Z,20.29
2023-04-30T15:44:31.776Z,20.42
2023-04-30T15:47:41.414Z,20.32
2023-04-30T15:50:47.195Z,20.30
2023-04-30T15:53:52.723Z,20.41
2023-04-30T15:56:58.760Z,20.23
2023-04-30T16:00:05.447Z,19.99
2023-04-30T16:03:17.349Z,20.06
2023-04-30T16:06:23.604Z,20.07
2023-04-30T16:09:30.146Z,20.06
2023-04-30T16:12:35.776Z,19.91
2023-04-30T16:15:41.268Z,19.84
2023-04-30T16:18:46.879Z,19.72
2023-04-30T16:21:52.437Z,19.81
2023-04-30T16:24:58.188Z,19.65
2023-04-30T16:28:03.682Z,19.61
2023-04-30T16:31:09.408Z,19.55
2023-04-30T16:34:14.776Z,19.63
2023-04-30T16:37:20.186Z,19.53
2023-04-30T16:40:26.496Z,19.51
2023-04-30T16:43:32.311Z,19.43
2023-04-30T16:46:38.130Z,19.45
2023-04-30T16:49:43.776Z,19.33
2023-04-30T16:52:49.138Z,19.32
2023-04-30T16:55:55.360Z,19.33
2023-04-30T16:59:01.010Z,19.24
2023-04-30T17:02:07.101Z,19.20
2023-04-30T17:05:12.527Z,19.18
2023-04-30T17:08:17.817Z,19.12
2023-04-30T17:11:24.722Z,19.05
2023-04-30T17:14:30.685Z,18.98
2023-04-30T17:17:35.990Z,19.02
2023-04-30T17:20:41.978Z,18.80
2023-04-30T17:23:47.437Z,18.74
2023-04-30T17:26:53.620Z,18.78
2023-04-30T17:29:59.451Z,18.58
2023-04-30T17:33:06.375Z,18.55
2023-04-30T17:36:12.665Z,18.54
2023-04-30T17:39:19.191Z,18.57
2023-04-30T17:42:24.874Z,18.49
2023-04-30T17:45:29.768Z,18.28
2023-04-30T17:48:34.865Z,18.32
2023-04-30T17:51:40.326Z,18.30
2023-04-30T17:54:38.827Z,18.25
2023-04-30T17:57:44.539Z,18.18
2023-04-30T18:00:51.206Z,18.09
2023-04-30T18:03:59.617Z,18.07
2023-04-30T18:07:05.159Z,18.02
2023-04-30T18:10:10.368Z,17.97
2023-04-30T18:13:15.736Z,17.88
2023-04-30T18:16:21.630Z,17.83
2023-04-30T18:19:27.013Z,17.85
2023-04-30T18:22:32.412Z,17.85
2023-04-30T18:25:37.510Z,17.71
2023-04-30T18:28:42.624Z,17.77
2023-04-30T18:31:49.024Z,17.62
2023-04-30T18:34:54.464Z,17.53
2023-04-30T18:38:00.653Z,17.57
2023-04-30T18:41:05.935Z,17.48
2023-04-30T18:44:13.808Z,17.46
2023-04-30T18:47:19.276Z,17.30
2023-04-30T18:50:26.010Z,17.31
2023-04-30T18:53:31.586Z,17.36
2023-04-30T18:56:37.290Z,17.27
2023-04-30T18:59:43.319Z,17.21
2023-04-30T19:02:48.784Z,17.25
2023-04-30T19:05:56.883Z,17.16
2023-04-30T19:09:02.052Z,17.10
2023-04-30T19:12:07.647Z,17.00
2023-04-30T19:15:15.431Z,16.92
2023-04-30T19:18:21.491Z,16.94
2023-04-30T19:21:28.629Z,16.97
2023-04-30T19:24:33.877Z,16.88
2023-04-30T19:27:39.245Z,16.87
2023-04-30T19:30:44.709Z,16.72
2023-04-30T19:33:50.367Z,16.83
2023-04-30T19:36:55.656Z,16.68
2023-04-30T19:40:01.003Z,16.72
2023-04-30T19:43:06.354Z,16.69
2023-04-30T19:46:12.040Z,16.75
2023-04-30T19:49:18.122Z,16.57
2023-04-30T19:52:23.252Z,16.57
2023-04-30T19:55:28.772Z,16.48
2023-04-30T19:58:34.016Z,16.33
2023-04-30T20:01:40.058Z,16.19
2023-04-30T20:04:45.899Z,16.16
2023-04-30T20:07:51.890Z,16.19
2023-04-30T20:10:58.018Z,16.31
2023-04-30T20:14:05.340Z,16.23
2023-04-30T20:17:11.111Z,16.40
2023-04-30T20:20:18.525Z,16.35
2023-04-30T20:23:23.993Z,16.28
2023-04-30T20:26:29.981Z,16.31
2023-04-30T20:29:36.268Z,16.27
2023-04-30T20:32:42.483Z,16.31
2023-04-30T20:35:47.862Z,16.20
2023-04-30T20:38:54.533Z,16.19
2023-04-30T20:42:01.638Z,16.25
2023-04-30T20:45:07.503Z,16.21
2023-04-30T20:48:12.704Z,16.18
2023-04-30T20:51:18.761Z,16.16
2023-04-30T20:54:24.268Z,16.05
2023-04-30T20:57:29.648Z,16.07
2023-04-30T21:00:35.535Z,16.09
2023-04-30T21:03:41.190Z,15.97
2023-04-30T21:06:46.282Z,15.98
2023-04-30T21:09:52.014Z,15.94
2023-04-30T21:12:57.006Z,16.01
2023-04-30T21:16:02.402Z,15.97
2023-04-30T21:19:07.900Z,15.86
2023-04-30T21:22:13.261Z,15.94
2023-04-30T21:25:18.365Z,15.83
2023-04-30T21:28:23.274Z,15.80
2023-04-30T21:31:29.505Z,15.82
2023-04-30T21:34:34.885Z,15.80
2023-04-30T21:37:41.141Z,15.69
2023-04-30T21:40:46.505Z,15.71
2023-04-30T21:43:52.136Z,15.63
2023-04-30T21:46:57.657Z,15.75
2023-04-30T21:50:03.493Z,15.74
2023-04-30T21:53:08.661Z,15.87
2023-04-30T21:56:15.029Z,15.80
2023-04-30T21:59:20.310Z,15.84
2023-04-30T22:02:26.699Z,15.80
2023-04-30T22:05:32.363Z,15.83
2023-04-30T22:08:37.948Z,15.71
2023-04-30T22:11:43.866Z,15.75
2023-04-30T22:14:53.408Z,15.73
2023-04-30T22:17:58.993Z,15.63
2023-04-30T22:21:04.583Z,15.65
2023-04-30T22:24:10.210Z,15.68
2023-04-30T22:27:16.805Z,15.62
2023-04-30T22:30:22.156Z,15.65
2023-04-30T22:33:27.890Z,15.61
2023-04-30T22:36:33.325Z,15.47
2023-04-30T22:39:39.613Z,15.56
2023-04-30T22:42:45.740Z,15.48
2023-04-30T22:45:51.467Z,15.37
2023-04-30T22:48:56.480Z,15.36
2023-04-30T22:52:02.463Z,15.25
2023-04-30T22:55:08.431Z,15.42
2023-04-30T22:58:14.212Z,15.27
2023-04-30T23:01:20.334Z,15.28
2023-04-30T23:04:27.008Z,15.12
2023-04-30T23:07:32.364Z,15.13
2023-04-30T23:10:37.650Z,15.33
2023-04-30T23:13:43.239Z,15.31
2023-04-30T23:16:49.122Z,15.18
2023-04-30T23:19:54.844Z,15.26
2023-04-30T23:23:00.887Z,15.32
2023-04-30T23:26:06.372Z,15.28
2023-04-30T23:29:11.931Z,15.37
2023-04-30T23:32:17.618Z,15.34
2023-04-30T23:35:23.499Z,15.27
2023-04-30T23:38:29.052Z,15.29
2023-04-30T23:41:34.397Z,15.40
2023-04-30T23:44:40.008Z,15.20
2023-04-30T23:47:45.850Z,15.18
2023-04-30T23:51:08.588Z,15.19
2023-04-30T23:54:14.469Z,15.26
2023-04-30T23:57:20.196Z,15.25
